Time;durP1;ratioP1;P1;durP2;ratioP2;P2;SDS_P1;SDS_P2;PMS_P1;PMS_P2;Temp;Humidity;BMP_temperature;BMP_pressure;BME280_temperature;BME280_humidity;BME280_pressure;Samples;Min_cycle;Max_cycle;Signal;HPM_P1;HPM_P2
2020/12/26 00:02:21;;;;;;;3.35;2.12;;;;;;;2.51;78.17;99346.94;1691996;84;21565;-67
2020/12/26 00:04:50;;;;;;;4.05;3.17;;;;;;;2.51;78.23;99345.61;1688317;84;21200;-64
2020/12/26 00:07:18;;;;;;;9.65;2.67;;;;;;;2.51;78.32;99346.13;1693640;84;21181;-65
2020/12/26 00:09:45;;;;;;;4.62;2.85;;;;;;;2.51;78.43;99361.54;1692755;84;21355;-65
2020/12/26 00:12:15;;;;;;;4.15;2.20;;;;;;;2.52;78.18;99359.70;1695355;84;21236;-68
2020/12/26 00:14:43;;;;;;;4.78;2.47;;;;;;;2.51;78.21;99367.36;1684642;85;21318;-68
2020/12/26 00:17:10;;;;;;;2.22;2.02;;;;;;;2.54;78.13;99368.30;1684596;85;21420;-68
2020/12/26 00:19:40;;;;;;;3.67;2.70;;;;;;;2.55;78.06;99356.62;1684485;85;21112;-68
2020/12/26 00:22:09;;;;;;;3.72;3.33;;;;;;;2.54;77.78;99353.16;1684449;85;21195;-67
2020/12/26 00:24:37;;;;;;;5.62;2.77;;;;;;;2.53;77.97;99362.16;1669176;84;21641;-67
2020/12/26 00:27:05;;;;;;;5.05;3.92;;;;;;;2.52;77.97;99367.67;1658259;85;21685;-67
2020/12/26 00:29:33;;;;;;;4.58;2.67;;;;;;;2.51;77.84;99370.83;1686826;84;21622;-65
2020/12/26 00:32:00;;;;;;;4.78;2.58;;;;;;;2.51;77.65;99368.69;1681583;85;21154;-70
2020/12/26 00:34:28;;;;;;;3.35;2.25;;;;;;;2.48;77.61;99366.45;1687620;84;21128;-67
2020/12/26 00:36:55;;;;;;;2.37;2.17;;;;;;;2.45;77.53;99371.64;1696993;84;21188;-67
2020/12/26 00:39:23;;;;;;;3.05;2.58;;;;;;;2.44;77.61;99364.73;1696575;84;21172;-66
2020/12/26 00:41:50;;;;;;;4.70;2.75;;;;;;;2.47;77.66;99374.92;1696452;84;22407;-69
2020/12/26 00:44:18;;;;;;;3.12;2.02;;;;;;;2.48;77.53;99371.76;1694357;84;21135;-68
2020/12/26 00:46:47;;;;;;;3.22;2.22;;;;;;;2.49;77.51;99373.40;1684285;85;21172;-65
2020/12/26 00:49:15;;;;;;;4.50;3.40;;;;;;;2.49;77.42;99384.02;1701695;84;21236;-68
2020/12/26 00:51:48;;;;;;;3.87;2.90;;;;;;;2.47;77.45;99390.84;1657449;85;21637;-65
2020/12/26 00:54:16;;;;;;;2.70;2.47;;;;;;;2.49;77.58;99388.81;1696639;84;21597;-64
2020/12/26 00:56:43;;;;;;;3.52;2.35;;;;;;;2.50;77.54;99388.28;1698179;84;21128;-64
2020/12/26 00:59:11;;;;;;;4.30;2.12;;;;;;;2.50;77.38;99390.42;1696650;84;21187;-68
2020/12/26 01:01:39;;;;;;;3.35;2.65;;;;;;;2.48;77.18;99389.83;1697249;84;21255;-69
2020/12/26 01:04:11;;;;;;;2.45;2.15;;;;;;;2.48;77.15;99393.81;1670787;85;21234;-69
2020/12/26 01:06:40;;;;;;;3.10;2.15;;;;;;;2.47;77.09;99397.48;1694581;84;22591;-70
2020/12/26 01:09:07;;;;;;;2.55;2.08;;;;;;;2.48;77.13;99390.34;1699284;84;21164;-69
2020/12/26 01:11:37;;;;;;;3.08;2.17;;;;;;;2.47;76.97;99390.84;1696810;84;21046;-70
2020/12/26 01:14:04;;;;;;;4.17;2.27;;;;;;;2.48;76.91;99404.94;1667908;84;21153;-68
2020/12/26 01:16:32;;;;;;;6.42;2.33;;;;;;;2.47;76.93;99396.16;1690559;84;21666;-69
2020/12/26 01:18:59;;;;;;;2.75;2.10;;;;;;;2.47;76.74;99404.63;1703101;84;21463;-69
2020/12/26 01:21:27;;;;;;;2.83;2.08;;;;;;;2.47;76.76;99405.95;1673165;85;21152;-70
2020/12/26 01:23:55;;;;;;;2.52;2.15;;;;;;;2.44;76.74;99403.20;1692866;84;21572;-70
2020/12/26 01:26:22;;;;;;;3.37;2.05;;;;;;;2.44;76.73;99399.23;1689416;84;21148;-68
2020/12/26 01:28:50;;;;;;;3.42;1.95;;;;;;;2.45;76.73;99397.36;1676281;85;21637;-68
2020/12/26 01:31:18;;;;;;;4.10;2.55;;;;;;;2.43;76.68;99392.78;1700560;84;21428;-69
2020/12/26 01:33:46;;;;;;;3.33;2.02;;;;;;;2.44;76.63;99389.12;1691920;84;21864;-70
2020/12/26 01:36:14;;;;;;;4.60;1.82;;;;;;;2.41;76.62;99390.84;1684660;84;21109;-69
2020/12/26 01:38:42;;;;;;;3.67;2.58;;;;;;;2.40;76.64;99398.52;1673475;85;21078;-68
2020/12/26 01:41:11;;;;;;;2.08;1.75;;;;;;;2.40;76.68;99394.53;1703541;84;21124;-68
2020/12/26 01:43:38;;;;;;;3.42;2.45;;;;;;;2.37;76.78;99399.72;1640299;87;21224;-66
2020/12/26 01:46:06;;;;;;;2.12;1.92;;;;;;;2.38;76.83;99404.52;1676121;85;21238;-67
2020/12/26 01:48:33;;;;;;;3.37;2.37;;;;;;;2.36;76.78;99403.90;1695759;84;21175;-68
2020/12/26 01:51:01;;;;;;;2.45;2.08;;;;;;;2.35;76.86;99396.98;1706043;84;21150;-67
2020/12/26 01:53:28;;;;;;;4.30;1.75;;;;;;;2.34;76.93;99405.95;1658155;85;21586;-67
2020/12/26 01:55:56;;;;;;;2.75;2.17;;;;;;;2.31;77.06;99397.88;1695000;84;21382;-67
2020/12/26 01:58:24;;;;;;;4.08;2.08;;;;;;;2.29;77.11;99398.61;1692658;84;21490;-68
2020/12/26 02:00:51;;;;;;;4.10;2.83;;;;;;;2.25;77.26;99397.39;1692774;84;21161;-65
2020/12/26 02:03:19;;;;;;;2.37;2.02;;;;;;;2.24;77.39;99397.07;1692762;84;21176;-67
2020/12/26 02:05:47;;;;;;;4.65;2.72;;;;;;;2.23;77.48;99399.41;1701008;84;21192;-67
2020/12/26 02:08:15;;;;;;;2.90;2.10;;;;;;;2.21;77.53;99397.45;1669931;85;21419;-69
2020/12/26 02:10:43;;;;;;;2.35;1.90;;;;;;;2.18;77.56;99393.39;1705899;84;21572;-69
2020/12/26 02:13:11;;;;;;;2.87;2.67;;;;;;;2.21;78.62;99404.09;1687360;84;21224;-70
2020/12/26 02:15:39;;;;;;;4.03;2.50;;;;;;;2.25;78.26;99405.85;1675201;85;21657;-68
2020/12/26 02:18:09;;;;;;;3.00;2.45;;;;;;;2.25;77.84;99411.98;1673976;85;21211;-70
2020/12/26 02:20:39;;;;;;;3.98;2.80;;;;;;;2.26;77.73;99400.32;1674042;85;22325;-70
2020/12/26 02:23:07;;;;;;;3.72;2.35;;;;;;;2.27;77.64;99404.61;1676258;85;21576;-69
2020/12/26 02:25:35;;;;;;;2.77;2.47;;;;;;;2.25;77.50;99398.71;1673786;85;21538;-69
2020/12/26 02:28:04;;;;;;;3.10;2.62;;;;;;;2.25;77.44;99401.88;1673710;85;21160;-69
2020/12/26 02:30:33;;;;;;;2.42;2.15;;;;;;;2.23;77.34;99404.72;1673672;85;21210;-73
2020/12/26 02:33:00;;;;;;;4.62;2.77;;;;;;;2.23;77.32;99410.53;1689439;84;21589;-70
2020/12/26 02:35:28;;;;;;;3.42;2.40;;;;;;;2.22;77.28;99407.06;1667357;86;21156;-68
2020/12/26 02:37:55;;;;;;;4.35;2.70;;;;;;;2.23;77.29;99409.20;1670617;85;21062;-70
2020/12/26 02:40:23;;;;;;;4.33;2.47;;;;;;;2.23;77.20;99419.81;1670491;85;22213;-70
2020/12/26 02:42:51;;;;;;;3.12;2.30;;;;;;;2.24;77.21;99424.11;1665290;85;21657;-69
2020/12/26 02:45:18;;;;;;;3.45;2.60;;;;;;;2.24;77.04;99422.28;1658961;85;21223;-68
2020/12/26 02:47:46;;;;;;;2.42;2.22;;;;;;;2.25;77.05;99430.55;1655640;86;21681;-69
2020/12/26 02:50:15;;;;;;;3.70;2.02;;;;;;;2.26;76.81;99436.14;1664613;85;21625;-70
2020/12/26 02:52:42;;;;;;;3.37;2.25;;;;;;;2.28;76.64;99434.63;1690071;84;21564;-71
2020/12/26 02:55:12;;;;;;;2.45;2.22;;;;;;;2.26;76.42;99433.48;1679381;84;21038;-69
2020/12/26 02:57:40;;;;;;;3.27;2.02;;;;;;;2.24;76.30;99432.07;1670098;85;21431;-69
2020/12/26 03:00:07;;;;;;;3.75;2.37;;;;;;;2.23;76.37;99431.75;1670079;85;21662;-69
2020/12/26 03:02:35;;;;;;;4.22;3.37;;;;;;;2.21;76.21;99428.50;1670108;85;21664;-69
2020/12/26 03:05:04;;;;;;;3.12;2.65;;;;;;;2.17;76.31;99430.22;1670043;85;21136;-72
2020/12/26 03:07:32;;;;;;;3.62;2.58;;;;;;;2.16;76.39;99429.91;1678300;84;21499;-69
2020/12/26 03:10:00;;;;;;;2.47;2.27;;;;;;;2.16;76.52;99431.23;1672124;85;21598;-70
2020/12/26 03:12:28;;;;;;;3.52;2.17;;;;;;;2.16;76.53;99427.75;1679462;84;21171;-69
2020/12/26 03:14:55;;;;;;;2.40;2.20;;;;;;;2.16;76.47;99426.43;1694286;84;21592;-70
2020/12/26 03:17:23;;;;;;;2.45;2.22;;;;;;;2.14;76.48;99428.48;1695782;84;21164;-69
2020/12/26 03:19:50;;;;;;;3.42;2.77;;;;;;;2.13;76.56;99436.95;1680750;85;21642;-69
2020/12/26 03:22:18;;;;;;;3.95;2.37;;;;;;;2.15;76.56;99433.59;1680853;85;21387;-69
2020/12/26 03:24:46;;;;;;;3.65;2.47;;;;;;;2.17;76.49;99441.33;1680664;85;21244;-69
2020/12/26 03:27:13;;;;;;;2.15;1.92;;;;;;;2.18;76.44;99453.59;1694750;84;21153;-68
2020/12/26 03:29:41;;;;;;;3.22;2.92;;;;;;;2.17;76.25;99451.44;1692922;84;21177;-69
2020/12/26 03:32:10;;;;;;;3.95;2.80;;;;;;;2.20;76.18;99458.19;1692748;84;21641;-69
2020/12/26 03:34:37;;;;;;;2.67;2.47;;;;;;;2.18;76.05;99456.23;1695529;84;22397;-69
2020/12/26 03:37:05;;;;;;;4.92;2.70;;;;;;;2.15;75.74;99448.70;1668087;86;21191;-69
2020/12/26 03:39:35;;;;;;;3.67;2.30;;;;;;;2.12;75.62;99449.89;1668342;84;21152;-70
2020/12/26 03:42:07;;;;;;;2.83;2.62;;;;;;;2.11;75.12;99446.14;1695165;84;21175;-69
2020/12/26 03:44:35;;;;;;;2.50;2.30;;;;;;;2.10;75.07;99450.63;1658203;85;22440;-70
2020/12/26 03:47:05;;;;;;;3.37;2.40;;;;;;;2.08;74.15;99435.41;1668150;86;21268;-68
2020/12/26 03:49:33;;;;;;;2.35;2.15;;;;;;;2.08;73.94;99438.06;1668589;84;21171;-70
2020/12/26 03:52:02;;;;;;;3.52;2.10;;;;;;;2.08;73.75;99439.89;1668204;86;21676;-69
2020/12/26 03:54:30;;;;;;;2.37;2.17;;;;;;;2.09;73.80;99446.84;1688901;84;21192;-69
2020/12/26 03:56:57;;;;;;;2.70;2.27;;;;;;;2.10;73.81;99449.30;1693014;84;21663;-70
2020/12/26 03:59:25;;;;;;;3.17;2.62;;;;;;;2.10;73.56;99443.17;1692832;84;21547;-69
2020/12/26 04:01:52;;;;;;;3.05;2.65;;;;;;;2.08;73.50;99453.98;1700778;84;21609;-69
2020/12/26 04:04:21;;;;;;;6.45;3.42;;;;;;;2.07;73.44;99449.69;1696953;84;21224;-69
2020/12/26 04:06:48;;;;;;;3.22;2.30;;;;;;;2.07;73.43;99447.53;1666344;84;21642;-71
2020/12/26 04:09:16;;;;;;;2.60;2.33;;;;;;;2.07;73.54;99454.98;1699266;84;21617;-70
2020/12/26 04:11:46;;;;;;;3.70;2.60;;;;;;;2.07;73.60;99451.01;1652163;85;21397;-69
2020/12/26 04:14:13;;;;;;;3.30;2.65;;;;;;;2.06;73.68;99449.91;1683604;84;21606;-69
2020/12/26 04:16:41;;;;;;;3.75;2.83;;;;;;;2.04;73.85;99454.58;1685321;83;21180;-69
2020/12/26 04:19:08;;;;;;;2.87;2.47;;;;;;;2.02;73.90;99453.95;1699338;84;21634;-68
2020/12/26 04:21:38;;;;;;;3.58;2.80;;;;;;;1.97;74.06;99454.55;1695739;84;21790;-68
2020/12/26 04:24:05;;;;;;;4.25;2.17;;;;;;;1.94;74.31;99470.05;1684502;85;22389;-69
2020/12/26 04:26:33;;;;;;;2.83;2.55;;;;;;;1.92;74.52;99466.27;1698631;84;20989;-70
2020/12/26 04:29:00;;;;;;;4.53;3.10;;;;;;;1.89;74.64;99468.50;1681748;85;21146;-68
2020/12/26 04:31:28;;;;;;;5.75;2.87;;;;;;;1.85;74.80;99465.44;1699039;84;21614;-68
2020/12/26 04:33:56;;;;;;;3.27;2.80;;;;;;;1.83;74.95;99465.31;1699852;84;21152;-68
2020/12/26 04:36:25;;;;;;;2.98;2.60;;;;;;;1.81;75.08;99476.14;1696638;84;21394;-79
2020/12/26 04:38:52;;;;;;;2.87;2.15;;;;;;;1.80;75.07;99477.15;1696564;84;21137;-68
2020/12/26 04:41:22;;;;;;;4.37;2.72;;;;;;;1.80;75.14;99475.00;1699403;84;21550;-70
2020/12/26 04:43:49;;;;;;;3.52;2.52;;;;;;;1.74;75.12;99476.11;1671841;85;21157;-69
2020/12/26 04:46:20;;;;;;;4.45;2.87;;;;;;;1.72;75.07;99487.94;1673058;84;21575;-68
2020/12/26 04:49:10;;;;;;;3.58;2.47;;;;;;;1.68;75.09;99499.92;1696657;84;21235;-69
2020/12/26 04:51:40;;;;;;;3.30;2.47;;;;;;;1.63;75.09;99487.80;1697778;84;21236;-68
2020/12/26 04:54:24;;;;;;;3.30;3.00;;;;;;;1.59;75.30;99496.63;1699854;84;21172;-69
2020/12/26 04:56:54;;;;;;;4.20;2.62;;;;;;;1.56;75.22;99493.06;1657813;85;21196;-69
2020/12/26 04:59:22;;;;;;;3.98;2.70;;;;;;;1.53;75.43;99499.27;1697122;84;21582;-70
2020/12/26 05:01:51;;;;;;;3.08;2.55;;;;;;;1.46;75.33;99492.59;1689020;84;21287;-69
2020/12/26 05:04:19;;;;;;;3.10;2.65;;;;;;;1.43;75.45;99500.95;1701794;84;21133;-70
2020/12/26 05:06:53;;;;;;;4.17;2.80;;;;;;;1.45;75.57;99504.20;1687418;84;21128;-69
2020/12/26 05:09:22;;;;;;;4.72;2.90;;;;;;;1.45;75.47;99502.88;1698911;84;21151;-69
2020/12/26 05:11:56;;;;;;;3.83;2.58;;;;;;;1.48;75.49;99502.50;1695105;84;21649;-68
2020/12/26 05:14:25;;;;;;;4.30;3.75;;;;;;;1.50;75.44;99506.27;1645764;85;21382;-69
2020/12/26 05:16:53;;;;;;;4.90;3.08;;;;;;;1.49;75.30;99510.73;1679505;84;21626;-69
2020/12/26 05:19:21;;;;;;;5.08;3.52;;;;;;;1.51;75.24;99512.70;1662849;84;21061;-68
2020/12/26 05:21:55;;;;;;;8.80;4.05;;;;;;;1.51;75.15;99506.08;1688008;85;21217;-70
2020/12/26 05:24:22;;;;;;;5.42;3.98;;;;;;;1.52;75.11;99512.20;1688083;85;21145;-67
2020/12/26 05:26:53;;;;;;;5.53;2.95;;;;;;;1.54;75.25;99516.27;1689713;84;21398;-68
2020/12/26 05:29:21;;;;;;;3.35;2.90;;;;;;;1.57;74.87;99519.88;1656553;85;21318;-68
2020/12/26 05:31:57;;;;;;;3.37;3.08;;;;;;;1.54;74.77;99512.30;1689667;85;21650;-69
2020/12/26 05:34:34;;;;;;;5.03;4.35;;;;;;;1.50;74.80;99511.56;1683744;84;21217;-68
2020/12/26 05:37:03;;;;;;;4.40;3.10;;;;;;;1.48;74.96;99518.41;1678419;84;21167;-68
2020/12/26 05:39:38;;;;;;;4.58;3.00;;;;;;;1.48;74.99;99520.23;1685531;85;21368;-70
2020/12/26 05:42:06;;;;;;;4.00;2.62;;;;;;;1.47;74.99;99524.70;1655416;86;21113;-68
2020/12/26 05:44:37;;;;;;;4.10;3.42;;;;;;;1.44;74.87;99529.59;1687425;85;21207;-69
2020/12/26 05:47:06;;;;;;;5.30;3.00;;;;;;;1.40;75.07;99529.64;1687889;84;21149;-69
2020/12/26 05:49:37;;;;;;;6.70;3.83;;;;;;;1.39;75.23;99527.49;1671036;83;23425;-69
2020/12/26 05:52:12;;;;;;;5.97;3.62;;;;;;;1.40;75.24;99533.11;1675782;85;22033;-70
2020/12/26 05:54:49;;;;;;;3.83;3.22;;;;;;;1.41;75.20;99536.08;1703456;83;21168;-69
2020/12/26 05:57:18;;;;;;;7.05;3.80;;;;;;;1.37;75.21;99534.84;1731409;82;21046;-69
2020/12/26 05:59:47;;;;;;;4.10;2.60;;;;;;;1.35;75.31;99544.80;1721165;82;21558;-71
2020/12/26 06:02:29;;;;;;;5.75;3.72;;;;;;;1.34;75.40;99552.96;1714779;83;21171;-70
2020/12/26 06:05:05;;;;;;;7.17;3.47;;;;;;;1.31;75.39;99554.15;1705029;83;21387;-69
2020/12/26 06:07:35;;;;;;;5.00;4.05;;;;;;;1.28;75.53;99559.84;1712494;83;21686;-69
2020/12/26 06:10:06;;;;;;;4.35;3.52;;;;;;;1.28;75.69;99567.80;1732628;82;21121;-70
2020/12/26 06:12:33;;;;;;;4.67;4.03;;;;;;;1.32;75.72;99570.36;1704175;83;21183;-70
2020/12/26 06:15:03;;;;;;;8.90;6.97;;;;;;;1.34;75.84;99571.00;1697505;84;21803;-68
2020/12/26 06:17:32;;;;;;;3.70;3.30;;;;;;;1.40;75.78;99580.80;1720703;82;22291;-68
2020/12/26 06:20:06;;;;;;;3.75;3.22;;;;;;;1.41;75.62;99577.65;1727707;82;21219;-68
2020/12/26 06:22:52;;;;;;;4.15;3.00;;;;;;;1.41;75.56;99570.53;1733200;82;21544;-71
2020/12/26 06:25:21;;;;;;;3.47;3.17;;;;;;;1.41;75.45;99566.55;1711665;83;21173;-69
2020/12/26 06:27:59;;;;;;;4.97;3.45;;;;;;;1.40;75.39;99563.58;1732607;82;21151;-69
2020/12/26 06:30:28;;;;;;;3.30;2.60;;;;;;;1.39;75.42;99560.61;1730625;82;21385;-68
2020/12/26 06:32:57;;;;;;;3.98;2.77;;;;;;;1.40;75.45;99565.41;1722217;82;21025;-70
2020/12/26 06:35:24;;;;;;;4.53;3.05;;;;;;;1.38;75.46;99572.25;1714767;83;21104;-72
2020/12/26 06:38:17;;;;;;;4.65;4.20;;;;;;;1.36;75.45;99571.61;1714828;82;21696;-69
2020/12/26 06:40:57;;;;;;;3.58;2.98;;;;;;;1.37;75.60;99565.81;1719120;82;21759;-68
2020/12/26 06:43:47;;;;;;;5.10;3.50;;;;;;;1.38;75.48;99570.10;1715665;82;21394;-68
2020/12/26 06:46:23;;;;;;;6.83;3.22;;;;;;;1.36;75.45;99563.66;1714828;83;21049;-70
2020/12/26 06:48:52;;;;;;;15.98;9.95;;;;;;;1.38;75.61;99576.72;1714782;83;21214;-68
2020/12/26 06:51:43;;;;;;;5.28;4.35;;;;;;;1.41;75.71;99582.45;1717098;82;21152;-69
2020/12/26 06:54:12;;;;;;;3.02;2.47;;;;;;;1.44;75.69;99588.67;1715627;82;21154;-68
2020/12/26 06:56:45;;;;;;;4.95;3.50;;;;;;;1.50;75.54;99598.51;1674439;85;21590;-69
2020/12/26 06:59:13;;;;;;;8.40;6.00;;;;;;;1.51;75.47;99597.50;1692230;84;21143;-69
2020/12/26 07:01:44;;;;;;;8.13;5.33;;;;;;;1.54;75.45;99609.03;1734106;82;21207;-68
2020/12/26 07:04:17;;;;;;;12.05;7.20;;;;;;;1.54;75.42;99610.35;1731746;82;21209;-68
2020/12/26 07:06:54;;;;;;;7.22;4.37;;;;;;;1.55;75.37;99604.05;1736845;82;21545;-67
2020/12/26 07:09:46;;;;;;;10.13;6.12;;;;;;;1.53;75.43;99602.12;1734961;82;21396;-68
2020/12/26 07:12:14;;;;;;;12.07;6.90;;;;;;;1.53;75.39;99604.77;1734979;82;21676;-69
2020/12/26 07:14:44;;;;;;;10.43;8.13;;;;;;;1.49;75.58;99609.30;1711266;82;21189;-68
2020/12/26 07:17:20;;;;;;;13.98;8.45;;;;;;;1.46;75.71;99604.39;1702796;84;21215;-68
2020/12/26 07:19:48;;;;;;;9.60;5.92;;;;;;;1.40;75.93;99603.33;1703337;84;21625;-68
2020/12/26 07:22:28;;;;;;;6.45;4.67;;;;;;;1.44;76.06;99613.05;1703343;84;21199;-70
2020/12/26 07:25:05;;;;;;;7.62;5.47;;;;;;;1.47;75.85;99613.98;1701893;84;21447;-70
2020/12/26 07:27:40;;;;;;;8.50;4.50;;;;;;;1.50;75.83;99626.83;1699817;84;21182;-68
2020/12/26 07:30:13;;;;;;;8.93;5.17;;;;;;;1.51;75.73;99621.86;1703498;84;21591;-68
2020/12/26 07:32:44;;;;;;;8.30;5.10;;;;;;;1.56;75.67;99627.40;1701295;84;21790;-70
2020/12/26 07:35:17;;;;;;;7.25;4.53;;;;;;;1.59;75.72;99629.65;1702635;84;22278;-68
2020/12/26 07:37:55;;;;;;;10.35;5.70;;;;;;;1.61;75.74;99632.44;1702986;83;21196;-70
2020/12/26 07:40:25;;;;;;;6.70;4.60;;;;;;;1.66;75.82;99624.73;1695828;84;21161;-69
2020/12/26 07:42:54;;;;;;;4.00;3.40;;;;;;;1.70;75.52;99637.08;1682769;85;21187;-70
2020/12/26 07:45:23;;;;;;;5.80;4.20;;;;;;;1.75;75.67;99638.64;1703045;84;21178;-72
2020/12/26 07:47:54;;;;;;;15.50;7.25;;;;;;;1.78;75.58;99647.52;1696041;84;21899;-69
2020/12/26 07:50:27;;;;;;;7.90;6.08;;;;;;;1.84;75.62;99640.13;1703290;84;20997;-68
2020/12/26 07:53:08;;;;;;;9.33;6.40;;;;;;;1.86;75.57;99644.73;1703422;84;21605;-69
2020/12/26 07:55:37;;;;;;;5.22;4.42;;;;;;;1.92;75.64;99651.09;1703018;84;21448;-70
2020/12/26 07:58:12;;;;;;;13.03;6.87;;;;;;;1.98;75.53;99660.40;1686934;84;21176;-66
2020/12/26 08:00:42;;;;;;;11.30;6.08;;;;;;;2.05;75.49;99661.78;1706993;83;21613;-68
2020/12/26 08:03:11;;;;;;;8.03;5.97;;;;;;;2.08;75.35;99649.44;1713427;83;21164;-67
2020/12/26 08:05:48;;;;;;;10.35;6.62;;;;;;;2.08;75.21;99655.56;1674750;84;21196;-66
2020/12/26 08:08:27;;;;;;;9.85;6.00;;;;;;;2.09;75.16;99657.72;1696148;83;21205;-67
2020/12/26 08:11:01;;;;;;;7.78;5.15;;;;;;;2.10;75.26;99662.84;1728636;83;21153;-69
2020/12/26 08:13:31;;;;;;;8.83;5.95;;;;;;;2.16;75.33;99662.53;1716702;81;21584;-70
2020/12/26 08:16:03;;;;;;;10.10;7.47;;;;;;;2.19;75.35;99667.46;1744717;82;21115;-68
2020/12/26 08:18:32;;;;;;;11.03;7.00;;;;;;;2.19;75.39;99659.50;1735830;82;21164;-68
2020/12/26 08:20:59;;;;;;;10.70;8.13;;;;;;;2.25;75.81;99669.84;1714009;83;21188;-67
2020/12/26 08:23:28;;;;;;;9.70;5.80;;;;;;;2.27;75.72;99656.68;1705846;82;21160;-68
2020/12/26 08:26:02;;;;;;;9.05;6.70;;;;;;;2.34;75.73;99664.17;1744724;82;21222;-67
2020/12/26 08:28:30;;;;;;;8.13;6.55;;;;;;;2.39;75.82;99671.55;1744737;82;21140;-69
2020/12/26 08:31:02;;;;;;;9.88;5.90;;;;;;;2.43;75.62;99665.64;1744642;82;21123;-68
2020/12/26 08:33:39;;;;;;;9.38;6.37;;;;;;;2.47;75.67;99665.55;1713062;82;21141;-67
2020/12/26 08:36:14;;;;;;;10.23;6.83;;;;;;;2.52;75.72;99668.94;1735359;82;21132;-67
2020/12/26 08:38:53;;;;;;;8.25;5.95;;;;;;;2.57;75.68;99675.80;1741314;82;21513;-68
2020/12/26 08:41:21;;;;;;;10.35;6.60;;;;;;;2.59;75.74;99659.97;1733466;82;21049;-68
2020/12/26 08:43:48;;;;;;;9.33;5.87;;;;;;;2.62;75.91;99650.30;1736727;82;21061;-67
2020/12/26 08:46:18;;;;;;;10.38;5.85;;;;;;;2.71;75.98;99658.08;1720267;82;21172;-68
2020/12/26 08:48:46;;;;;;;8.13;6.10;;;;;;;2.76;75.94;99652.98;1743880;82;21131;-70
2020/12/26 08:51:26;;;;;;;8.20;5.15;;;;;;;2.79;75.99;99651.24;1739984;82;21267;-70
2020/12/26 08:56:38;;;;;;;10.77;5.50;;;;;;;2.88;76.02;99646.88;1877374;75;22561;-69
2020/12/26 08:59:06;;;;;;;9.38;5.80;;;;;;;2.90;75.99;99641.38;1832634;77;21062;-68
2020/12/26 09:01:34;;;;;;;8.43;5.50;;;;;;;2.93;75.82;99644.43;1823149;77;21267;-69
2020/12/26 09:04:02;;;;;;;8.03;5.65;;;;;;;2.98;75.83;99619.92;1767796;79;21002;-67
2020/12/26 09:06:33;;;;;;;10.32;6.10;;;;;;;3.02;75.82;99617.98;1774945;80;21540;-67
2020/12/26 09:09:22;;;;;;;12.20;7.22;;;;;;;3.04;75.79;99607.98;1802011;79;20983;-68
2020/12/26 09:12:01;;;;;;;10.93;5.72;;;;;;;3.07;75.70;99600.10;1776296;80;20974;-67
2020/12/26 09:14:29;;;;;;;11.18;6.55;;;;;;;3.10;75.46;99601.55;1773948;80;21585;-68
2020/12/26 09:16:59;;;;;;;10.05;6.05;;;;;;;3.02;75.21;99591.41;1758613;81;21179;-69
2020/12/26 09:19:29;;;;;;;7.60;4.95;;;;;;;3.03;75.46;99589.58;1774594;80;21193;-66
2020/12/26 09:22:08;;;;;;;6.28;4.62;;;;;;;3.06;75.46;99597.98;1771604;80;21204;-67
2020/12/26 09:24:36;;;;;;;7.08;4.62;;;;;;;3.14;75.25;99608.09;1797746;79;21133;-68
2020/12/26 09:27:04;;;;;;;7.62;4.87;;;;;;;3.20;74.95;99611.27;1801026;79;21198;-66
2020/12/26 09:29:32;;;;;;;7.67;5.58;;;;;;;3.25;74.70;99618.94;1791736;79;20987;-64
2020/12/26 09:32:05;;;;;;;10.30;6.50;;;;;;;3.30;74.44;99627.63;1781278;80;21697;-67
2020/12/26 09:34:35;;;;;;;7.03;5.53;;;;;;;3.34;74.19;99623.02;1784211;79;21647;-69
2020/12/26 09:37:08;;;;;;;9.45;5.25;;;;;;;3.39;73.79;99630.39;1768843;80;21176;-65
2020/12/26 09:39:37;;;;;;;8.48;5.05;;;;;;;3.43;73.58;99641.73;1749126;81;21153;-68
2020/12/26 09:42:05;;;;;;;5.62;4.50;;;;;;;3.45;72.98;99655.62;1781152;79;21142;-69
2020/12/26 09:44:33;;;;;;;6.33;5.40;;;;;;;3.49;72.92;99654.72;1782417;80;21587;-67
2020/12/26 09:47:03;;;;;;;8.25;4.92;;;;;;;3.53;72.95;99671.89;1772844;80;21616;-70
2020/12/26 09:49:31;;;;;;;8.88;4.58;;;;;;;3.57;72.73;99669.64;1761788;81;21562;-68
2020/12/26 09:52:01;;;;;;;8.83;6.25;;;;;;;3.60;72.66;99684.66;1770330;81;21377;-69
2020/12/26 09:54:29;;;;;;;11.03;5.17;;;;;;;3.61;72.58;99677.00;1779124;80;21158;-67
2020/12/26 09:56:57;;;;;;;9.48;5.90;;;;;;;3.62;72.55;99683.14;1748899;82;21177;-68
2020/12/26 09:59:25;;;;;;;6.53;5.33;;;;;;;3.58;72.52;99687.23;1754716;80;21156;-68
2020/12/26 10:01:53;;;;;;;8.10;5.17;;;;;;;3.58;72.59;99684.57;1789600;80;21182;-68
2020/12/26 10:04:21;;;;;;;10.80;4.90;;;;;;;3.59;72.43;99695.02;1788813;80;21366;-65
2020/12/26 10:06:49;;;;;;;8.83;5.47;;;;;;;3.57;72.45;99695.72;1789626;80;21174;-70
2020/12/26 10:09:17;;;;;;;6.72;4.95;;;;;;;3.55;72.54;99690.31;1788473;80;21150;-68
2020/12/26 10:11:46;;;;;;;32.38;20.62;;;;;;;3.55;72.48;99691.64;1788548;80;21149;-69
2020/12/26 10:14:15;;;;;;;7.25;6.25;;;;;;;3.55;72.64;99686.32;1758380;81;21594;-68
2020/12/26 10:16:44;;;;;;;5.47;4.75;;;;;;;3.55;72.83;99698.28;1764872;80;22141;-69
2020/12/26 10:19:12;;;;;;;8.03;4.87;;;;;;;3.57;72.87;99693.06;1781784;79;21143;-67
2020/12/26 10:21:40;;;;;;;7.85;5.15;;;;;;;3.55;72.86;99694.30;1779868;80;21106;-69
2020/12/26 10:24:08;;;;;;;11.33;7.03;;;;;;;3.51;73.00;99706.66;1798672;79;21156;-68
2020/12/26 10:26:37;;;;;;;14.63;6.85;;;;;;;3.48;73.08;99713.72;1781192;80;21134;-68
2020/12/26 10:29:05;;;;;;;11.85;6.37;;;;;;;3.50;73.34;99702.35;1784568;79;21212;-68
2020/12/26 10:31:34;;;;;;;6.62;5.62;;;;;;;3.51;73.46;99697.86;1783454;80;21694;-70
2020/12/26 10:34:02;;;;;;;7.97;5.80;;;;;;;3.54;73.56;99701.45;1758964;80;21082;-67
2020/12/26 10:36:32;;;;;;;8.13;6.42;;;;;;;3.56;73.60;99699.90;1758219;81;21161;-71
2020/12/26 10:39:00;;;;;;;8.25;5.50;;;;;;;3.56;73.69;99702.05;1740350;82;21626;-67
2020/12/26 10:41:27;;;;;;;9.03;5.33;;;;;;;3.58;73.72;99709.33;1783249;80;21627;-69
2020/12/26 10:43:55;;;;;;;6.55;5.35;;;;;;;3.61;73.85;99706.76;1783018;80;21155;-66
2020/12/26 10:46:24;;;;;;;7.90;5.60;;;;;;;3.61;73.86;99707.58;1753284;81;21117;-67
2020/12/26 10:48:53;;;;;;;7.12;5.72;;;;;;;3.58;73.90;99706.67;1770021;80;21205;-68
2020/12/26 10:51:21;;;;;;;6.10;4.75;;;;;;;3.59;74.08;99702.99;1778818;80;21174;-68
2020/12/26 10:53:49;;;;;;;6.80;4.70;;;;;;;3.62;74.06;99715.05;1777836;80;21210;-72
2020/12/26 10:56:17;;;;;;;9.35;6.17;;;;;;;3.62;74.06;99715.05;1781227;80;21576;-70
2020/12/26 10:58:44;;;;;;;7.53;5.10;;;;;;;3.61;74.17;99713.41;1774358;80;21145;-66
2020/12/26 11:01:11;;;;;;;5.92;4.45;;;;;;;3.62;74.22;99719.03;1756622;81;21178;-68
2020/12/26 11:03:40;;;;;;;6.65;4.53;;;;;;;3.61;74.18;99725.38;1767243;80;21042;-70
2020/12/26 11:06:10;;;;;;;6.95;4.92;;;;;;;3.61;74.29;99724.04;1770217;79;21255;-68
2020/12/26 11:08:40;;;;;;;9.48;6.70;;;;;;;3.61;74.22;99724.04;1797423;79;21116;-67
2020/12/26 11:11:07;;;;;;;13.95;7.45;;;;;;;3.56;74.46;99725.98;1816503;79;21149;-68
2020/12/26 11:13:36;;;;;;;15.72;7.08;;;;;;;3.61;74.61;99730.69;1792666;79;21022;-67
2020/12/26 11:16:04;;;;;;;8.63;6.37;;;;;;;3.62;74.64;99729.16;1778943;80;21157;-68
2020/12/26 11:18:31;;;;;;;9.48;7.05;;;;;;;3.64;74.74;99728.46;1766684;80;21812;-70
2020/12/26 11:21:00;;;;;;;6.58;5.62;;;;;;;3.66;74.71;99732.23;1752933;80;21501;-69
2020/12/26 11:23:27;;;;;;;19.45;12.40;;;;;;;3.67;74.81;99735.20;1782758;80;21177;-68
2020/12/26 11:25:58;;;;;;;11.80;7.97;;;;;;;3.62;74.76;99729.16;1780861;80;21218;-74
2020/12/26 11:28:28;;;;;;;9.00;6.90;;;;;;;3.67;74.84;99713.42;1756034;81;21141;-67
2020/12/26 11:30:56;;;;;;;9.40;6.03;;;;;;;3.67;74.84;99713.42;1758058;81;21458;-65
2020/12/26 11:33:24;;;;;;;10.80;5.33;;;;;;;3.72;74.76;99727.43;1758024;81;21586;-65
2020/12/26 11:35:53;;;;;;;11.33;7.12;;;;;;;3.68;74.63;99717.72;1762142;80;21005;-67
2020/12/26 11:38:21;;;;;;;8.58;5.53;;;;;;;3.64;74.83;99724.98;1773835;80;21644;-68
2020/12/26 11:40:49;;;;;;;12.15;6.97;;;;;;;3.62;75.05;99734.98;1772261;80;21034;-70
2020/12/26 11:43:18;;;;;;;7.45;5.30;;;;;;;3.62;75.18;99731.00;1784485;80;21170;-66
2020/12/26 11:45:48;;;;;;;9.13;6.12;;;;;;;3.62;75.27;99728.34;1781987;80;21122;-69
2020/12/26 11:48:16;;;;;;;9.33;7.05;;;;;;;3.60;75.36;99731.20;1793599;80;21001;-69
2020/12/26 11:50:45;;;;;;;11.43;7.75;;;;;;;3.62;75.72;99729.16;1792398;80;21140;-71
2020/12/26 11:53:13;;;;;;;12.68;7.22;;;;;;;3.62;75.72;99729.16;1792439;80;21112;-69
2020/12/26 11:55:41;;;;;;;10.88;7.70;;;;;;;3.64;75.78;99732.45;1783342;80;21828;-70
2020/12/26 11:58:09;;;;;;;10.98;6.70;;;;;;;3.62;76.03;99721.19;1784888;80;21166;-68